createdAt,value
2019-02-28T00:01:17.712Z,8.83
2019-02-28T00:03:46.972Z,11.38
2019-02-28T00:06:16.240Z,8.93
2019-02-28T00:08:45.505Z,9.93
2019-02-28T00:11:14.766Z,13.10
2019-02-28T00:13:44.027Z,12.45
2019-02-28T00:16:13.623Z,11.90
2019-02-28T00:18:43.241Z,12.45
2019-02-28T00:21:12.948Z,13.80
2019-02-28T00:23:42.251Z,12.90
2019-02-28T00:26:12.378Z,11.30
2019-02-28T00:28:41.965Z,11.00
2019-02-28T00:31:14.255Z,12.73
2019-02-28T00:33:42.227Z,19.32
2019-02-28T00:36:11.512Z,12.18
2019-02-28T00:38:40.773Z,20.00
2019-02-28T00:41:10.320Z,14.93
2019-02-28T00:43:39.583Z,10.78
2019-02-28T00:46:10.109Z,11.33
2019-02-28T00:48:39.921Z,11.35
2019-02-28T00:51:09.203Z,10.13
2019-02-28T00:53:38.500Z,12.45
2019-02-28T00:56:07.774Z,11.83
2019-02-28T00:58:37.033Z,13.25
2019-02-28T01:01:08.334Z,10.93
2019-02-28T01:03:37.301Z,11.20
2019-02-28T01:06:09.722Z,12.25
2019-02-28T01:08:37.647Z,11.45
2019-02-28T01:11:07.240Z,9.40
2019-02-28T01:13:36.511Z,11.83
2019-02-28T01:16:06.096Z,11.70
2019-02-28T01:18:35.683Z,14.00
2019-02-28T01:21:04.962Z,10.63
2019-02-28T01:23:34.228Z,10.03
2019-02-28T01:26:03.766Z,9.80
2019-02-28T01:28:33.038Z,13.50
2019-02-28T01:31:02.298Z,10.00
2019-02-28T01:33:31.560Z,8.88
2019-02-28T01:36:01.170Z,9.15
2019-02-28T01:38:30.428Z,7.12
2019-02-28T01:40:59.694Z,8.73
2019-02-28T01:43:29.580Z,10.78
2019-02-28T01:45:58.797Z,6.92
2019-02-28T01:48:28.068Z,10.08
2019-02-28T01:50:57.324Z,9.28
2019-02-28T01:53:26.686Z,11.10
2019-02-28T01:55:55.963Z,14.10
2019-02-28T01:58:25.231Z,12.20
2019-02-28T02:00:57.317Z,7.72
2019-02-28T02:03:25.490Z,8.60
2019-02-28T02:05:54.742Z,9.60
2019-02-28T02:08:24.011Z,10.05
2019-02-28T02:10:55.984Z,9.10
2019-02-28T02:13:24.286Z,10.15
2019-02-28T02:15:53.551Z,8.28
2019-02-28T02:18:22.883Z,10.48
2019-02-28T02:20:52.152Z,9.15
2019-02-28T02:23:21.664Z,6.90
2019-02-28T02:25:51.278Z,9.90
2019-02-28T02:28:20.880Z,9.90
2019-02-28T02:30:50.931Z,7.58
2019-02-28T02:33:21.396Z,8.45
2019-02-28T02:35:51.043Z,9.83
2019-02-28T02:38:20.306Z,7.12
2019-02-28T02:40:49.584Z,11.05
2019-02-28T02:43:21.974Z,9.68
2019-02-28T02:45:50.128Z,8.23
2019-02-28T02:48:19.396Z,10.30
2019-02-28T02:50:48.655Z,8.00
2019-02-28T02:53:17.920Z,8.93
2019-02-28T02:55:47.187Z,9.03
2019-02-28T02:58:16.449Z,12.85
2019-02-28T03:00:49.369Z,9.15
2019-02-28T03:03:16.703Z,8.83
2019-02-28T03:05:45.957Z,11.15
2019-02-28T03:08:15.233Z,10.88
2019-02-28T03:10:44.830Z,9.33
2019-02-28T03:13:14.102Z,8.33
2019-02-28T03:15:43.378Z,7.22
2019-02-28T03:18:12.660Z,10.18
2019-02-28T03:20:42.520Z,9.63
2019-02-28T03:23:11.913Z,9.70
2019-02-28T03:25:41.154Z,10.20
2019-02-28T03:28:10.456Z,8.73
2019-02-28T03:30:39.735Z,7.92
2019-02-28T03:33:08.987Z,12.35
2019-02-28T03:35:43.077Z,12.30
2019-02-28T03:38:11.579Z,7.60
2019-02-28T03:40:41.287Z,8.53
2019-02-28T03:43:11.064Z,9.95
2019-02-28T03:45:40.332Z,8.55
2019-02-28T03:48:09.598Z,10.40
2019-02-28T03:50:38.864Z,10.63
2019-02-28T03:53:08.128Z,15.85
2019-02-28T03:55:40.840Z,13.13
2019-02-28T03:58:08.409Z,11.50
2019-02-28T04:00:38.005Z,11.05
2019-02-28T04:03:07.642Z,8.88
2019-02-28T04:05:36.954Z,10.95
2019-02-28T04:08:06.222Z,14.15
2019-02-28T04:10:35.561Z,10.03
2019-02-28T04:13:04.849Z,12.18
2019-02-28T04:15:34.117Z,11.33
2019-02-28T04:18:07.607Z,10.45
2019-02-28T04:20:37.594Z,11.45
2019-02-28T04:23:05.929Z,12.13
2019-02-28T04:25:35.174Z,9.00
2019-02-28T04:28:04.823Z,10.98
2019-02-28T04:30:34.557Z,13.48
2019-02-28T04:33:03.836Z,11.25
2019-02-28T04:35:33.125Z,8.83
2019-02-28T04:38:02.375Z,11.40
2019-02-28T04:40:31.638Z,13.18
2019-02-28T04:43:00.898Z,8.45
2019-02-28T04:45:30.430Z,10.30
2019-02-28T04:47:59.690Z,10.55
2019-02-28T04:50:32.041Z,9.85
2019-02-28T04:53:00.276Z,9.83
2019-02-28T04:55:30.587Z,10.30
2019-02-28T04:58:00.094Z,11.25
2019-02-28T05:00:29.625Z,9.88
2019-02-28T05:02:59.223Z,8.05
2019-02-28T05:05:28.509Z,7.22
2019-02-28T05:07:57.775Z,9.28
2019-02-28T05:10:27.038Z,16.60
2019-02-28T05:12:56.302Z,12.25
2019-02-28T05:15:25.571Z,11.22
2019-02-28T05:17:55.883Z,8.20
2019-02-28T05:20:26.188Z,10.38
2019-02-28T05:22:55.498Z,12.88
2019-02-28T05:25:24.779Z,10.05
2019-02-28T05:27:54.048Z,9.50
2019-02-28T05:30:23.672Z,9.65
2019-02-28T05:32:53.290Z,10.80
2019-02-28T05:35:26.579Z,10.78
2019-02-28T05:37:53.563Z,8.13
2019-02-28T05:40:22.831Z,11.95
2019-02-28T05:42:54.697Z,10.85
2019-02-28T05:45:23.371Z,9.78
2019-02-28T05:47:52.670Z,9.65
2019-02-28T05:50:21.931Z,18.48
2019-02-28T05:52:51.516Z,19.27
2019-02-28T05:55:24.576Z,17.60
2019-02-28T05:57:52.029Z,27.00
2019-02-28T06:00:23.187Z,26.80
2019-02-28T06:02:54.451Z,19.80
2019-02-28T06:05:24.025Z,26.12
2019-02-28T06:07:53.290Z,24.87
2019-02-28T06:10:24.660Z,31.00
2019-02-28T06:12:54.057Z,21.55
2019-02-28T06:15:23.357Z,20.15
2019-02-28T06:17:55.022Z,15.98
2019-02-28T06:20:23.876Z,17.85
2019-02-28T06:22:53.133Z,15.28
2019-02-28T06:25:25.021Z,14.65
2019-02-28T06:27:53.392Z,15.55
2019-02-28T06:30:22.978Z,15.55
2019-02-28T06:32:57.830Z,14.65
2019-02-28T06:35:23.805Z,12.98
2019-02-28T06:37:53.429Z,12.45
2019-02-28T06:40:23.033Z,11.30
2019-02-28T06:42:52.642Z,13.10
2019-02-28T06:45:21.907Z,10.30
2019-02-28T06:47:51.169Z,9.10
2019-02-28T06:50:20.753Z,13.13
2019-02-28T06:52:50.033Z,14.78
2019-02-28T06:55:28.251Z,10.65
2019-02-28T06:57:58.958Z,10.43
2019-02-28T07:00:28.503Z,11.65
2019-02-28T07:02:57.799Z,10.98
2019-02-28T07:05:27.409Z,13.65
2019-02-28T07:07:56.678Z,11.25
2019-02-28T07:10:25.939Z,12.82
2019-02-28T07:12:55.204Z,12.25
2019-02-28T07:15:24.985Z,14.60
2019-02-28T07:17:54.550Z,13.88
2019-02-28T07:20:23.809Z,12.55
2019-02-28T07:22:55.530Z,14.10
2019-02-28T07:25:24.074Z,13.30
2019-02-28T07:27:53.671Z,14.58
2019-02-28T07:30:22.942Z,13.72
2019-02-28T07:32:52.198Z,16.25
2019-02-28T07:35:21.479Z,16.77
2019-02-28T07:37:54.363Z,13.40
2019-02-28T07:40:22.225Z,11.40
2019-02-28T07:42:51.494Z,11.30
2019-02-28T07:45:20.758Z,13.95
2019-02-28T07:47:52.724Z,12.40
2019-02-28T07:50:21.016Z,12.35
2019-02-28T07:52:50.275Z,12.93
2019-02-28T07:55:22.874Z,18.07
2019-02-28T07:57:56.249Z,15.68
2019-02-28T08:00:25.326Z,13.18
2019-02-28T08:02:54.955Z,13.05
2019-02-28T08:05:30.114Z,13.72
2019-02-28T08:07:55.517Z,15.13
2019-02-28T08:10:33.336Z,13.88
2019-02-28T08:13:03.289Z,15.23
2019-02-28T08:15:33.350Z,16.17
2019-02-28T08:18:02.612Z,14.53
2019-02-28T08:20:33.846Z,16.87
2019-02-28T08:23:03.170Z,12.45
2019-02-28T08:25:32.439Z,15.05
2019-02-28T08:28:01.741Z,16.17
2019-02-28T08:30:34.635Z,12.40
2019-02-28T08:33:03.920Z,13.85
2019-02-28T08:35:34.897Z,12.82
2019-02-28T08:38:04.191Z,15.50
2019-02-28T08:40:33.738Z,14.00
2019-02-28T08:43:02.987Z,13.70
2019-02-28T08:45:33.383Z,26.90
2019-02-28T08:48:03.267Z,21.80
2019-02-28T08:50:32.563Z,19.73
2019-02-28T08:53:05.287Z,20.03
2019-02-28T08:55:34.555Z,13.67
2019-02-28T08:58:06.163Z,12.10
2019-02-28T09:00:35.197Z,19.87
2019-02-28T09:03:04.545Z,16.67
2019-02-28T09:05:33.820Z,22.30
2019-02-28T09:08:03.095Z,14.50
2019-02-28T09:10:32.373Z,11.90
2019-02-28T09:13:01.655Z,14.33
2019-02-28T09:15:31.331Z,12.77
2019-02-28T09:18:00.689Z,14.07
2019-02-28T09:20:29.969Z,13.80
2019-02-28T09:23:02.387Z,11.03
2019-02-28T09:25:30.243Z,14.87
2019-02-28T09:27:59.848Z,13.07
2019-02-28T09:30:42.145Z,12.10
2019-02-28T09:33:11.426Z,20.63
2019-02-28T09:35:45.332Z,19.57
2019-02-28T09:38:13.541Z,21.00
2019-02-28T09:40:42.714Z,17.93
2019-02-28T09:43:11.995Z,19.37
2019-02-28T09:45:41.625Z,19.70
2019-02-28T09:48:10.905Z,20.50
2019-02-28T09:50:40.188Z,16.53
2019-02-28T09:53:09.469Z,18.70
2019-02-28T09:55:39.877Z,18.83
2019-02-28T09:58:09.211Z,17.23
2019-02-28T10:00:38.484Z,34.27
2019-02-28T10:03:07.755Z,17.17
2019-02-28T10:05:38.864Z,17.10
2019-02-28T10:08:08.371Z,23.27
2019-02-28T10:10:37.645Z,19.60
2019-02-28T10:13:06.922Z,22.10
2019-02-28T10:15:38.608Z,18.80
2019-02-28T10:18:07.593Z,20.87
2019-02-28T10:20:40.085Z,18.20
2019-02-28T10:23:09.635Z,21.93
2019-02-28T10:25:43.269Z,16.93
2019-02-28T10:28:10.236Z,15.43
2019-02-28T10:30:39.520Z,18.90
2019-02-28T10:33:08.843Z,18.70
2019-02-28T10:35:38.128Z,15.10
2019-02-28T10:38:07.406Z,14.57
2019-02-28T10:40:36.687Z,21.23
2019-02-28T10:43:05.952Z,11.67
2019-02-28T10:45:41.147Z,14.53
2019-02-28T10:48:06.828Z,12.87
2019-02-28T10:50:38.416Z,14.83
2019-02-28T10:53:07.760Z,19.07
2019-02-28T10:55:37.046Z,14.60
2019-02-28T10:58:06.466Z,15.23
2019-02-28T11:00:40.559Z,18.87
2019-02-28T11:03:10.316Z,16.77
2019-02-28T11:05:43.069Z,18.83
2019-02-28T11:08:18.833Z,17.70
2019-02-28T11:10:48.185Z,13.30
2019-02-28T11:13:21.638Z,15.77
2019-02-28T11:15:51.248Z,12.07
2019-02-28T11:18:20.525Z,13.93
2019-02-28T11:20:49.793Z,12.00
2019-02-28T11:23:19.486Z,13.47
2019-02-28T11:25:48.762Z,16.17
2019-02-28T11:28:18.781Z,14.97
2019-02-28T11:30:49.213Z,13.60
2019-02-28T11:33:19.558Z,10.57
2019-02-28T11:35:49.448Z,11.87
2019-02-28T11:38:21.471Z,13.90
2019-02-28T11:40:57.034Z,10.30
2019-02-28T11:43:21.044Z,13.90
2019-02-28T11:45:50.546Z,10.20
2019-02-28T11:48:26.750Z,9.37
2019-02-28T11:50:56.028Z,8.70
2019-02-28T11:53:25.371Z,9.20
2019-02-28T11:55:54.720Z,10.73
2019-02-28T11:58:24.045Z,10.37
2019-02-28T12:00:53.656Z,9.70
2019-02-28T12:03:22.891Z,11.43
2019-02-28T12:05:52.561Z,12.53
2019-02-28T12:08:22.465Z,11.93
2019-02-28T12:10:52.051Z,12.90
2019-02-28T12:13:21.330Z,14.00
2019-02-28T12:15:50.959Z,8.63
2019-02-28T12:18:20.242Z,11.10
2019-02-28T12:20:49.513Z,12.93
2019-02-28T12:23:23.157Z,12.23
2019-02-28T12:25:49.792Z,9.27
2019-02-28T12:28:19.411Z,9.47
2019-02-28T12:30:48.721Z,10.00
2019-02-28T12:33:18.666Z,11.00
2019-02-28T12:35:48.993Z,8.20
2019-02-28T12:38:18.280Z,10.50
2019-02-28T12:40:49.478Z,15.57
2019-02-28T12:43:18.807Z,10.53
2019-02-28T12:45:48.452Z,10.77
2019-02-28T12:48:17.906Z,13.70
2019-02-28T12:50:47.182Z,13.90
2019-02-28T12:53:16.457Z,8.07
2019-02-28T12:55:45.733Z,14.73
2019-02-28T12:58:15.083Z,14.73
2019-02-28T13:00:46.395Z,12.73
2019-02-28T13:03:19.478Z,11.83
2019-02-28T13:05:48.022Z,10.97
2019-02-28T13:08:17.664Z,13.13
2019-02-28T13:10:46.935Z,12.13
2019-02-28T13:13:16.282Z,12.27
2019-02-28T13:15:46.828Z,14.03
2019-02-28T13:18:16.301Z,13.30
2019-02-28T13:20:45.586Z,14.63
2019-02-28T13:23:17.043Z,11.90
2019-02-28T13:25:45.868Z,11.77
2019-02-28T13:28:17.783Z,13.23
2019-02-28T13:30:50.166Z,11.10
2019-02-28T13:33:17.313Z,11.37
2019-02-28T13:35:47.750Z,14.23
2019-02-28T13:38:19.558Z,13.50
2019-02-28T13:40:50.119Z,14.67
2019-02-28T13:43:22.427Z,12.20
2019-02-28T13:45:54.449Z,14.30
2019-02-28T13:48:26.179Z,12.70
2019-02-28T13:50:52.554Z,12.40
2019-02-28T13:53:23.416Z,12.33
2019-02-28T13:55:57.871Z,13.30
2019-02-28T13:58:23.794Z,12.60
2019-02-28T14:00:53.070Z,17.30
2019-02-28T14:03:22.370Z,11.70
2019-02-28T14:05:51.839Z,14.37
2019-02-28T14:08:21.133Z,13.07
2019-02-28T14:10:51.556Z,10.70
2019-02-28T14:13:20.900Z,13.03
2019-02-28T14:15:52.941Z,17.40
2019-02-28T14:18:22.575Z,14.13
2019-02-28T14:20:52.122Z,14.77
2019-02-28T14:23:21.680Z,11.77
2019-02-28T14:25:51.126Z,12.00
2019-02-28T14:28:20.650Z,10.60
2019-02-28T14:30:49.929Z,11.07
2019-02-28T14:33:19.693Z,13.20
2019-02-28T14:35:49.961Z,11.00
2019-02-28T14:38:19.237Z,15.57
2019-02-28T14:40:49.712Z,12.20
2019-02-28T14:43:20.633Z,10.30
2019-02-28T14:45:50.251Z,13.63
2019-02-28T14:48:19.543Z,10.83
2019-02-28T14:50:50.650Z,11.23
2019-02-28T14:53:19.791Z,12.10
2019-02-28T14:55:49.112Z,23.77
2019-02-28T14:58:21.223Z,11.00
2019-02-28T15:00:49.665Z,12.00
2019-02-28T15:03:19.025Z,11.23
2019-02-28T15:05:48.647Z,12.80
2019-02-28T15:08:18.253Z,12.87
2019-02-28T15:10:47.675Z,13.27
2019-02-28T15:13:17.029Z,10.50
2019-02-28T15:15:49.506Z,10.30
2019-02-28T15:18:17.316Z,11.27
2019-02-28T15:20:46.593Z,10.30
2019-02-28T15:23:16.208Z,13.20
2019-02-28T15:25:45.481Z,12.93
2019-02-28T15:28:14.856Z,11.37
2019-02-28T15:30:44.115Z,9.70
2019-02-28T15:33:13.477Z,11.63
2019-02-28T15:35:42.744Z,11.50
2019-02-28T15:38:12.252Z,8.63
2019-02-28T15:40:46.858Z,10.17
2019-02-28T15:43:18.254Z,12.40
2019-02-28T15:45:47.450Z,13.70
2019-02-28T15:48:16.732Z,13.93
2019-02-28T15:50:51.212Z,18.10
2019-02-28T15:53:17.247Z,15.67
2019-02-28T15:55:46.845Z,18.73
2019-02-28T15:58:16.729Z,17.03
2019-02-28T16:00:46.214Z,15.73
2019-02-28T16:03:16.770Z,13.87
2019-02-28T16:05:47.024Z,16.90
2019-02-28T16:08:16.355Z,17.60
2019-02-28T16:10:53.438Z,17.50
2019-02-28T16:13:16.665Z,18.50
2019-02-28T16:15:46.289Z,18.60
2019-02-28T16:18:17.020Z,17.27
2019-02-28T16:20:46.301Z,21.07
2019-02-28T16:23:15.911Z,16.60
2019-02-28T16:25:46.831Z,19.30
2019-02-28T16:28:16.327Z,23.10
2019-02-28T16:30:45.610Z,21.90
2019-02-28T16:33:14.886Z,22.00
2019-02-28T16:35:46.677Z,18.73
2019-02-28T16:38:15.161Z,17.57
2019-02-28T16:40:44.460Z,19.40
2019-02-28T16:43:13.774Z,18.83
2019-02-28T16:45:47.698Z,18.97
2019-02-28T16:48:16.969Z,15.40
2019-02-28T16:50:46.246Z,21.17
2019-02-28T16:53:16.536Z,15.83
2019-02-28T16:55:46.137Z,17.73
2019-02-28T16:58:18.594Z,18.53
2019-02-28T17:00:46.446Z,21.13
2019-02-28T17:03:16.005Z,16.40
2019-02-28T17:05:45.344Z,19.13
2019-02-28T17:08:15.611Z,13.20
2019-02-28T17:10:45.762Z,15.33
2019-02-28T17:13:22.596Z,15.00
2019-02-28T17:16:10.133Z,15.57
2019-02-28T17:18:41.117Z,15.30
2019-02-28T17:21:16.702Z,12.27
2019-02-28T17:23:41.674Z,15.77
2019-02-28T17:26:11.329Z,12.50
2019-02-28T17:28:46.571Z,15.10
2019-02-28T17:31:27.638Z,12.70
2019-02-28T17:33:57.320Z,16.23
2019-02-28T17:36:26.707Z,11.00
2019-02-28T17:38:55.964Z,12.70
2019-02-28T17:41:25.247Z,16.17
2019-02-28T17:44:25.034Z,14.97
2019-02-28T17:47:01.553Z,18.97
2019-02-28T17:50:05.952Z,15.33
2019-02-28T17:52:51.134Z,17.53
2019-02-28T17:56:07.478Z,12.70
2019-02-28T17:59:05.225Z,16.80
2019-02-28T18:01:54.370Z,19.50
2019-02-28T18:04:56.038Z,15.67
2019-02-28T18:07:52.490Z,20.23
2019-02-28T18:10:32.347Z,17.00
2019-02-28T18:13:34.640Z,17.30
2019-02-28T18:16:40.084Z,17.50
2019-02-28T18:19:36.847Z,16.90
2019-02-28T18:22:27.148Z,16.33
2019-02-28T18:25:22.214Z,15.73
2019-02-28T18:28:14.207Z,17.00
2019-02-28T18:31:09.557Z,19.80
2019-02-28T18:33:45.966Z,14.83
2019-02-28T18:36:19.358Z,14.77
2019-02-28T18:38:48.635Z,12.43
2019-02-28T18:41:17.987Z,12.20
2019-02-28T18:43:47.263Z,14.03
2019-02-28T18:46:16.897Z,12.63
2019-02-28T18:48:46.169Z,7.53
2019-02-28T18:51:16.753Z,10.13
2019-02-28T18:53:46.104Z,11.17
2019-02-28T18:56:15.627Z,6.63
2019-02-28T18:58:45.238Z,7.50
2019-02-28T19:01:14.843Z,9.20
2019-02-28T19:03:44.117Z,7.93
2019-02-28T19:06:13.669Z,7.93
2019-02-28T19:08:43.262Z,8.67
2019-02-28T19:11:12.550Z,6.60
2019-02-28T19:13:41.891Z,8.17
2019-02-28T19:16:11.179Z,6.50
2019-02-28T19:18:40.454Z,6.40
2019-02-28T19:21:09.736Z,7.43
2019-02-28T19:23:39.370Z,7.63
2019-02-28T19:26:08.667Z,8.93
2019-02-28T19:28:37.924Z,4.23
2019-02-28T19:31:07.195Z,9.13
2019-02-28T19:33:36.778Z,5.30
2019-02-28T19:36:06.051Z,6.77
2019-02-28T19:38:35.685Z,6.53
2019-02-28T19:41:05.027Z,3.50
2019-02-28T19:43:34.307Z,7.10
2019-02-28T19:46:03.894Z,6.93
2019-02-28T19:48:34.815Z,6.00
2019-02-28T19:51:04.255Z,4.67
2019-02-28T19:53:33.529Z,4.10
2019-02-28T19:56:03.140Z,4.23
2019-02-28T19:58:32.416Z,5.53
2019-02-28T20:01:01.688Z,3.97
2019-02-28T20:03:30.973Z,5.27
2019-02-28T20:06:00.243Z,4.40
2019-02-28T20:08:29.515Z,4.00
2019-02-28T20:10:58.796Z,8.40
2019-02-28T20:13:28.344Z,4.60
2019-02-28T20:15:57.625Z,2.70
2019-02-28T20:18:26.923Z,4.20
2019-02-28T20:20:56.163Z,6.20
2019-02-28T20:23:25.443Z,11.10
2019-02-28T20:25:54.716Z,3.63
2019-02-28T20:28:23.989Z,6.90
2019-02-28T20:30:53.347Z,2.80
2019-02-28T20:33:22.607Z,3.77
2019-02-28T20:35:51.942Z,7.50
2019-02-28T20:38:21.562Z,2.90
2019-02-28T20:40:50.841Z,3.87
2019-02-28T20:43:20.121Z,7.87
2019-02-28T20:45:49.391Z,7.33
2019-02-28T20:48:19.645Z,6.90
2019-02-28T20:50:52.643Z,4.13
2019-02-28T20:53:21.908Z,4.03
2019-02-28T20:55:51.472Z,7.97
2019-02-28T20:58:20.771Z,5.00
2019-02-28T21:00:50.027Z,6.97
2019-02-28T21:03:19.301Z,6.93
2019-02-28T21:05:48.592Z,6.37
2019-02-28T21:08:18.195Z,5.20
2019-02-28T21:10:47.472Z,3.47
2019-02-28T21:13:16.825Z,4.13
2019-02-28T21:15:46.556Z,6.30
2019-02-28T21:18:16.102Z,4.20
2019-02-28T21:20:45.375Z,4.90
2019-02-28T21:23:14.734Z,9.43
2019-02-28T21:25:44.311Z,3.20
2019-02-28T21:28:13.600Z,9.50
2019-02-28T21:30:42.932Z,5.07
2019-02-28T21:33:12.218Z,6.40
2019-02-28T21:35:41.488Z,4.43
2019-02-28T21:38:10.771Z,6.80
2019-02-28T21:40:40.358Z,5.17
2019-02-28T21:43:10.034Z,6.90
2019-02-28T21:45:39.310Z,3.23
2019-02-28T21:48:08.834Z,4.63
2019-02-28T21:50:38.436Z,6.97
2019-02-28T21:53:07.776Z,4.60
2019-02-28T21:55:37.345Z,4.80
2019-02-28T21:58:06.633Z,6.80
2019-02-28T22:00:36.252Z,2.93
2019-02-28T22:03:06.402Z,6.23
2019-02-28T22:05:35.684Z,5.80
2019-02-28T22:08:04.950Z,4.03
2019-02-28T22:10:34.483Z,4.50
2019-02-28T22:13:04.006Z,6.13
2019-02-28T22:15:33.321Z,7.67
2019-02-28T22:18:02.591Z,3.37
2019-02-28T22:20:31.864Z,2.70
2019-02-28T22:23:01.397Z,2.77
2019-02-28T22:25:30.673Z,5.60
2019-02-28T22:27:59.975Z,2.93
2019-02-28T22:30:34.213Z,4.60
2019-02-28T22:33:05.124Z,2.47
2019-02-28T22:35:36.046Z,5.30
2019-02-28T22:38:05.318Z,6.47
2019-02-28T22:40:34.596Z,4.50
2019-02-28T22:43:03.870Z,3.23
2019-02-28T22:45:33.156Z,2.33
2019-02-28T22:48:02.423Z,4.37
2019-02-28T22:50:31.697Z,5.00
2019-02-28T22:53:00.972Z,2.20
2019-02-28T22:55:30.325Z,1.93
2019-02-28T22:58:01.244Z,2.93
2019-02-28T23:00:39.520Z,4.73
2019-02-28T23:03:11.204Z,1.70
2019-02-28T23:05:39.800Z,3.33
2019-02-28T23:08:09.077Z,2.73
2019-02-28T23:10:38.687Z,2.83
2019-02-28T23:13:08.300Z,1.60
2019-02-28T23:15:37.582Z,1.43
2019-02-28T23:18:07.201Z,2.93
2019-02-28T23:20:36.488Z,1.60
2019-02-28T23:23:05.762Z,5.50
2019-02-28T23:25:35.307Z,1.87
2019-02-28T23:28:17.220Z,2.10
2019-02-28T23:31:16.899Z,2.63
2019-02-28T23:33:46.808Z,2.60
2019-02-28T23:36:16.330Z,2.40
2019-02-28T23:38:45.599Z,3.07
2019-02-28T23:41:14.876Z,3.50
2019-02-28T23:43:44.145Z,2.13
2019-02-28T23:46:13.477Z,6.43
2019-02-28T23:48:42.993Z,4.13
2019-02-28T23:51:12.261Z,3.40
2019-02-28T23:53:41.564Z,2.50
2019-02-28T23:56:10.849Z,5.73
2019-02-28T23:58:40.115Z,2.90
